createdAt,value
2018-07-14T00:00:47.758Z,62.17
2018-07-14T00:03:00.306Z,62.34
2018-07-14T00:05:12.694Z,62.46
2018-07-14T00:07:25.026Z,62.85
2018-07-14T00:09:37.473Z,62.54
2018-07-14T00:11:49.940Z,62.53
2018-07-14T00:14:02.374Z,62.83
2018-07-14T00:16:14.799Z,62.55
2018-07-14T00:18:27.246Z,63.29
2018-07-14T00:20:40.009Z,62.77
2018-07-14T00:22:52.406Z,63.68
2018-07-14T00:25:05.081Z,62.77
2018-07-14T00:27:17.599Z,63.49
2018-07-14T00:29:30.047Z,64.21
2018-07-14T00:31:42.494Z,63.44
2018-07-14T00:33:54.955Z,63.03
2018-07-14T00:36:07.447Z,63.54
2018-07-14T00:38:19.909Z,63.50
2018-07-14T00:40:32.271Z,63.95
2018-07-14T00:42:44.659Z,64.40
2018-07-14T00:44:57.158Z,64.85
2018-07-14T00:47:09.606Z,64.69
2018-07-14T00:49:22.217Z,64.35
2018-07-14T00:51:34.614Z,64.70
2018-07-14T00:53:47.018Z,64.49
2018-07-14T00:55:59.326Z,63.78
2018-07-14T00:58:11.817Z,63.99
2018-07-14T01:00:24.190Z,63.98
2018-07-14T01:02:36.635Z,63.10
2018-07-14T01:04:49.034Z,62.97
2018-07-14T01:07:01.425Z,63.32
2018-07-14T01:09:13.798Z,63.07
2018-07-14T01:11:26.290Z,63.48
2018-07-14T01:13:38.785Z,63.65
2018-07-14T01:15:51.267Z,63.66
2018-07-14T01:18:03.747Z,62.50
2018-07-14T01:20:16.190Z,63.13
2018-07-14T01:22:28.626Z,62.92
2018-07-14T01:24:41.119Z,62.61
2018-07-14T01:26:53.506Z,63.03
2018-07-14T01:29:05.859Z,62.74
2018-07-14T01:31:18.258Z,63.63
2018-07-14T01:33:30.855Z,62.81
2018-07-14T01:35:43.302Z,63.28
2018-07-14T01:37:55.640Z,63.58
2018-07-14T01:40:08.031Z,62.52
2018-07-14T01:42:20.450Z,63.25
2018-07-14T01:44:32.824Z,63.19
2018-07-14T01:46:45.217Z,62.53
2018-07-14T01:48:57.575Z,63.20
2018-07-14T01:51:09.971Z,62.58
2018-07-14T01:53:22.490Z,63.72
2018-07-14T01:55:34.919Z,64.24
2018-07-14T01:57:47.674Z,64.21
2018-07-14T02:00:00.081Z,65.38
2018-07-14T02:02:12.534Z,65.43
2018-07-14T02:04:24.907Z,64.79
2018-07-14T02:06:37.278Z,65.18
2018-07-14T02:08:49.635Z,64.58
2018-07-14T02:11:02.036Z,64.66
2018-07-14T02:13:14.382Z,64.78
2018-07-14T02:15:26.780Z,64.39
2018-07-14T02:17:39.166Z,65.03
2018-07-14T02:19:51.606Z,65.14
2018-07-14T02:22:04.244Z,64.64
2018-07-14T02:24:16.619Z,65.25
2018-07-14T02:26:29.217Z,65.01
2018-07-14T02:28:41.589Z,65.24
2018-07-14T02:30:53.947Z,64.99
2018-07-14T02:33:06.307Z,65.88
2018-07-14T02:35:18.830Z,66.24
2018-07-14T02:37:31.202Z,66.25
2018-07-14T02:39:43.558Z,66.43
2018-07-14T02:41:56.051Z,66.58
2018-07-14T02:44:08.418Z,66.20
2018-07-14T02:46:20.834Z,66.99
2018-07-14T02:48:33.233Z,66.92
2018-07-14T02:50:45.834Z,66.47
2018-07-14T02:52:58.284Z,67.76
2018-07-14T02:55:10.663Z,67.48
2018-07-14T02:57:23.015Z,67.64
2018-07-14T02:59:35.426Z,66.48
2018-07-14T03:01:47.858Z,66.96
2018-07-14T03:04:00.266Z,67.65
2018-07-14T03:06:12.867Z,67.65
2018-07-14T03:08:25.327Z,66.76
2018-07-14T03:10:37.667Z,67.61
2018-07-14T03:12:50.278Z,67.73
2018-07-14T03:15:02.590Z,67.34
2018-07-14T03:17:15.019Z,67.16
2018-07-14T03:19:27.524Z,66.00
2018-07-14T03:21:39.782Z,66.51
2018-07-14T03:23:52.431Z,65.58
2018-07-14T03:26:04.944Z,65.71
2018-07-14T03:28:17.369Z,65.60
2018-07-14T03:30:29.899Z,65.63
2018-07-14T03:32:42.274Z,65.54
2018-07-14T03:34:54.705Z,65.92
2018-07-14T03:37:07.062Z,65.09
2018-07-14T03:39:19.522Z,64.99
2018-07-14T03:41:31.914Z,65.95
2018-07-14T03:43:44.254Z,65.91
2018-07-14T03:45:56.726Z,66.01
2018-07-14T03:48:09.049Z,65.69
2018-07-14T03:50:21.471Z,66.12
2018-07-14T03:52:34.042Z,65.32
2018-07-14T03:54:46.386Z,65.75
2018-07-14T03:56:58.831Z,66.98
2018-07-14T03:59:11.123Z,66.98
2018-07-14T04:01:23.596Z,66.60
2018-07-14T04:03:36.487Z,67.62
2018-07-14T04:05:48.837Z,66.62
2018-07-14T04:08:01.198Z,67.53
2018-07-14T04:10:13.635Z,66.78
2018-07-14T04:12:26.055Z,67.41
2018-07-14T04:14:38.565Z,67.30
2018-07-14T04:16:50.962Z,67.23
2018-07-14T04:19:03.378Z,66.94
2018-07-14T04:21:15.742Z,66.83
2018-07-14T04:23:28.142Z,67.28
2018-07-14T04:25:40.506Z,67.39
2018-07-14T04:27:52.865Z,67.54
2018-07-14T04:30:05.280Z,67.56
2018-07-14T04:32:17.663Z,67.32
2018-07-14T04:34:30.044Z,66.75
2018-07-14T04:36:42.460Z,66.82
2018-07-14T04:38:57.742Z,67.04
2018-07-14T04:41:10.131Z,66.88
2018-07-14T04:43:22.589Z,67.51
2018-07-14T04:45:34.958Z,67.73
2018-07-14T04:47:47.403Z,67.41
2018-07-14T04:49:59.863Z,66.97
2018-07-14T04:52:12.269Z,67.83
2018-07-14T04:54:24.648Z,67.39
2018-07-14T04:56:37.074Z,67.85
2018-07-14T04:58:49.950Z,68.38
2018-07-14T05:01:02.680Z,68.44
2018-07-14T05:03:15.035Z,67.95
2018-07-14T05:05:27.445Z,68.28
2018-07-14T05:07:39.786Z,67.60
2018-07-14T05:09:52.360Z,66.65
2018-07-14T05:12:05.051Z,67.05
2018-07-14T05:14:17.406Z,65.88
2018-07-14T05:16:29.782Z,65.29
2018-07-14T05:18:42.127Z,64.42
2018-07-14T05:20:54.515Z,64.40
2018-07-14T05:23:06.891Z,62.88
2018-07-14T05:25:19.338Z,62.78
2018-07-14T05:27:31.743Z,61.50
2018-07-14T05:29:44.138Z,60.83
2018-07-14T05:31:56.730Z,61.15
2018-07-14T05:34:09.119Z,60.33
2018-07-14T05:36:21.563Z,59.58
2018-07-14T05:38:33.970Z,59.85
2018-07-14T05:40:46.393Z,58.16
2018-07-14T05:42:58.989Z,58.06
2018-07-14T05:45:11.370Z,57.43
2018-07-14T05:47:23.870Z,58.63
2018-07-14T05:49:36.220Z,58.66
2018-07-14T05:51:48.574Z,57.95
2018-07-14T05:54:00.957Z,57.38
2018-07-14T05:56:13.297Z,57.69
2018-07-14T05:58:25.708Z,56.75
2018-07-14T06:00:38.082Z,57.49
2018-07-14T06:02:50.646Z,58.62
2018-07-14T06:05:03.030Z,58.79
2018-07-14T06:07:15.395Z,57.90
2018-07-14T06:09:27.882Z,58.86
2018-07-14T06:11:40.439Z,60.29
2018-07-14T06:13:52.999Z,59.99
2018-07-14T06:16:05.398Z,61.31
2018-07-14T06:18:17.765Z,61.18
2018-07-14T06:20:30.144Z,62.94
2018-07-14T06:22:42.501Z,63.45
2018-07-14T06:24:54.898Z,64.14
2018-07-14T06:27:07.343Z,64.68
2018-07-14T06:29:19.712Z,64.38
2018-07-14T06:31:32.363Z,63.63
2018-07-14T06:33:44.821Z,63.12
2018-07-14T06:35:57.203Z,62.78
2018-07-14T06:38:09.627Z,60.30
2018-07-14T06:40:22.120Z,57.66
2018-07-14T06:42:34.612Z,58.43
2018-07-14T06:44:47.017Z,56.13
2018-07-14T06:46:59.348Z,56.20
2018-07-14T06:49:11.666Z,54.47
2018-07-14T06:51:24.116Z,51.94
2018-07-14T06:53:36.555Z,52.24
2018-07-14T06:55:48.933Z,51.62
2018-07-14T06:58:01.369Z,51.67
2018-07-14T07:00:13.702Z,50.63
2018-07-14T07:02:26.115Z,49.00
2018-07-14T07:04:38.672Z,49.26
2018-07-14T07:06:51.049Z,48.93
2018-07-14T07:09:04.071Z,48.66
2018-07-14T07:11:16.605Z,47.17
2018-07-14T07:13:29.027Z,45.92
2018-07-14T07:15:41.554Z,45.63
2018-07-14T07:17:53.958Z,45.67
2018-07-14T07:20:06.353Z,44.99
2018-07-14T07:22:18.890Z,45.04
2018-07-14T07:24:31.246Z,44.41
2018-07-14T07:26:43.607Z,41.02
2018-07-14T07:28:56.054Z,41.61
2018-07-14T07:31:08.426Z,40.86
2018-07-14T07:33:21.235Z,41.83
2018-07-14T07:35:33.598Z,41.76
2018-07-14T07:37:45.961Z,42.27
2018-07-14T07:39:58.337Z,41.95
2018-07-14T07:42:10.751Z,42.22
2018-07-14T07:44:23.234Z,41.35
2018-07-14T07:46:35.707Z,41.36
2018-07-14T07:48:48.147Z,42.56
2018-07-14T07:51:00.558Z,41.89
2018-07-14T07:53:12.890Z,43.08
2018-07-14T07:55:25.299Z,40.79
2018-07-14T07:57:37.743Z,40.52
2018-07-14T07:59:50.170Z,41.76
2018-07-14T08:02:02.610Z,42.10
2018-07-14T08:04:15.069Z,41.30
2018-07-14T08:06:27.467Z,41.52
2018-07-14T08:08:40.036Z,40.40
2018-07-14T08:10:52.377Z,41.44
2018-07-14T08:13:04.790Z,42.20
2018-07-14T08:15:17.122Z,40.91
2018-07-14T08:17:29.525Z,40.79
2018-07-14T08:19:41.851Z,41.33
2018-07-14T08:21:54.294Z,41.17
2018-07-14T08:24:06.898Z,40.44
2018-07-14T08:26:19.340Z,41.53
2018-07-14T08:28:31.742Z,39.71
2018-07-14T08:30:44.122Z,39.46
2018-07-14T08:32:56.535Z,39.94
2018-07-14T08:35:09.114Z,40.18
2018-07-14T08:37:21.482Z,39.85
2018-07-14T08:39:33.854Z,39.32
2018-07-14T08:41:46.262Z,40.79
2018-07-14T08:43:58.663Z,40.66
2018-07-14T08:46:11.103Z,39.59
2018-07-14T08:48:23.696Z,40.15
2018-07-14T08:50:36.092Z,40.52
2018-07-14T08:52:48.455Z,40.56
2018-07-14T08:55:00.907Z,40.30
2018-07-14T08:57:13.487Z,39.89
2018-07-14T08:59:25.860Z,39.78
2018-07-14T09:01:38.284Z,39.80
2018-07-14T09:03:50.638Z,37.91
2018-07-14T09:06:03.218Z,38.13
2018-07-14T09:08:15.581Z,38.57
2018-07-14T09:10:27.959Z,38.31
2018-07-14T09:12:40.342Z,39.28
2018-07-14T09:14:52.727Z,38.05
2018-07-14T09:17:05.340Z,37.63
2018-07-14T09:19:18.031Z,36.94
2018-07-14T09:21:30.416Z,38.27
2018-07-14T09:23:42.895Z,37.87
2018-07-14T09:25:55.290Z,37.52
2018-07-14T09:28:07.639Z,38.30
2018-07-14T09:30:20.065Z,38.25
2018-07-14T09:32:32.532Z,37.49
2018-07-14T09:34:44.837Z,37.53
2018-07-14T09:36:57.253Z,36.75
2018-07-14T09:39:09.606Z,36.87
2018-07-14T09:41:22.069Z,38.17
2018-07-14T09:43:34.446Z,36.38
2018-07-14T09:45:46.895Z,38.05
2018-07-14T09:47:59.318Z,40.71
2018-07-14T09:50:11.679Z,39.42
2018-07-14T09:52:24.182Z,39.17
2018-07-14T09:54:36.590Z,35.85
2018-07-14T09:56:49.016Z,37.23
2018-07-14T09:59:01.742Z,37.90
2018-07-14T10:01:14.075Z,36.92
2018-07-14T10:03:26.477Z,35.75
2018-07-14T10:05:38.827Z,35.04
2018-07-14T10:07:51.795Z,36.12
2018-07-14T10:10:04.375Z,37.68
2018-07-14T10:12:16.780Z,37.28
2018-07-14T10:14:29.247Z,35.22
2018-07-14T10:16:41.699Z,34.91
2018-07-14T10:18:54.111Z,35.78
2018-07-14T10:21:06.449Z,35.37
2018-07-14T10:23:19.167Z,36.23
2018-07-14T10:25:31.632Z,35.29
2018-07-14T10:27:44.254Z,35.23
2018-07-14T10:29:56.774Z,34.95
2018-07-14T10:32:09.246Z,34.87
2018-07-14T10:34:21.696Z,35.91
2018-07-14T10:36:34.167Z,35.49
2018-07-14T10:38:46.624Z,34.47
2018-07-14T10:40:59.087Z,34.09
2018-07-14T10:43:11.493Z,33.62
2018-07-14T10:45:23.890Z,33.76
2018-07-14T10:47:36.332Z,34.06
2018-07-14T10:49:48.707Z,33.32
2018-07-14T10:52:01.058Z,32.77
2018-07-14T10:54:13.669Z,32.32
2018-07-14T10:56:26.021Z,33.84
2018-07-14T10:58:38.350Z,33.52
2018-07-14T11:00:50.859Z,33.13
2018-07-14T11:03:03.283Z,34.46
2018-07-14T11:05:15.962Z,36.20
2018-07-14T11:07:28.293Z,34.40
2018-07-14T11:09:40.678Z,35.07
2018-07-14T11:11:53.086Z,36.25
2018-07-14T11:14:05.621Z,34.66
2018-07-14T11:16:18.015Z,33.21
2018-07-14T11:18:30.371Z,33.30
2018-07-14T11:20:42.818Z,34.17
2018-07-14T11:22:55.241Z,32.45
2018-07-14T11:25:07.723Z,32.53
2018-07-14T11:27:20.546Z,33.54
2018-07-14T11:29:32.915Z,32.86
2018-07-14T11:31:45.690Z,34.10
2018-07-14T11:33:58.111Z,34.42
2018-07-14T11:36:10.593Z,35.19
2018-07-14T11:38:22.942Z,35.54
2018-07-14T11:40:35.353Z,36.61
2018-07-14T11:42:47.850Z,37.18
2018-07-14T11:45:00.230Z,36.48
2018-07-14T11:47:12.764Z,38.31
2018-07-14T11:49:25.364Z,37.56
2018-07-14T11:51:37.738Z,37.41
2018-07-14T11:53:50.193Z,38.46
2018-07-14T11:56:02.651Z,38.22
2018-07-14T11:58:15.045Z,37.82
2018-07-14T12:00:27.455Z,38.97
2018-07-14T12:02:39.938Z,39.57
2018-07-14T12:04:52.594Z,38.34
2018-07-14T12:07:05.051Z,38.72
2018-07-14T12:09:17.528Z,37.56
2018-07-14T12:11:29.956Z,35.92
2018-07-14T12:13:42.455Z,34.44
2018-07-14T12:15:54.808Z,34.57
2018-07-14T12:18:07.361Z,33.84
2018-07-14T12:20:19.767Z,33.94
2018-07-14T12:22:32.140Z,34.59
2018-07-14T12:24:44.610Z,34.86
2018-07-14T12:26:57.001Z,34.99
2018-07-14T12:29:09.503Z,34.75
2018-07-14T12:31:22.006Z,35.22
2018-07-14T12:33:34.418Z,34.49
2018-07-14T12:35:46.959Z,33.58
2018-07-14T12:37:59.309Z,34.28
2018-07-14T12:40:13.485Z,33.56
2018-07-14T12:42:26.098Z,33.49
2018-07-14T12:44:39.173Z,34.69
2018-07-14T12:46:51.545Z,36.67
2018-07-14T12:49:04.098Z,34.12
2018-07-14T12:51:16.498Z,34.15
2018-07-14T12:53:28.991Z,33.63
2018-07-14T12:55:45.637Z,33.00
2018-07-14T12:57:58.201Z,34.51
2018-07-14T13:00:10.646Z,33.73
2018-07-14T13:02:28.941Z,34.20
2018-07-14T13:04:41.653Z,33.86
2018-07-14T13:06:58.251Z,34.44
2018-07-14T13:09:12.751Z,33.67
2018-07-14T13:11:25.165Z,33.53
2018-07-14T13:13:37.711Z,32.90
2018-07-14T13:15:49.999Z,34.47
2018-07-14T13:18:02.451Z,33.60
2018-07-14T13:20:14.862Z,33.49
2018-07-14T13:22:27.220Z,32.51
2018-07-14T13:24:39.612Z,34.08
2018-07-14T13:26:51.978Z,33.82
2018-07-14T13:29:04.533Z,33.03
2018-07-14T13:31:17.002Z,32.42
2018-07-14T13:33:29.398Z,33.16
2018-07-14T13:35:41.829Z,32.95
2018-07-14T13:37:54.182Z,32.58
2018-07-14T13:40:06.550Z,33.13
2018-07-14T13:42:19.003Z,32.54
2018-07-14T13:44:31.419Z,32.79
2018-07-14T13:46:43.794Z,31.69
2018-07-14T13:48:56.167Z,31.32
2018-07-14T13:51:08.583Z,32.45
2018-07-14T13:53:21.014Z,32.82
2018-07-14T13:55:33.454Z,32.49
2018-07-14T13:57:45.845Z,33.52
2018-07-14T13:59:58.317Z,32.85
2018-07-14T14:02:11.591Z,32.58
2018-07-14T14:04:23.922Z,32.69
2018-07-14T14:06:36.321Z,33.36
2018-07-14T14:08:48.654Z,33.47
2018-07-14T14:11:01.154Z,34.04
2018-07-14T14:13:13.523Z,34.98
2018-07-14T14:15:25.959Z,34.93
2018-07-14T14:17:38.420Z,35.62
2018-07-14T14:19:50.860Z,35.95
2018-07-14T14:22:03.335Z,34.93
2018-07-14T14:24:15.846Z,34.93
2018-07-14T14:26:28.394Z,34.13
2018-07-14T14:28:40.766Z,34.32
2018-07-14T14:30:53.141Z,33.31
2018-07-14T14:33:05.610Z,33.41
2018-07-14T14:35:17.913Z,33.79
2018-07-14T14:37:30.266Z,34.02
2018-07-14T14:39:42.662Z,33.97
2018-07-14T14:41:55.096Z,33.40
2018-07-14T14:44:07.466Z,33.51
2018-07-14T14:46:19.843Z,34.80
2018-07-14T14:48:32.485Z,33.79
2018-07-14T14:50:44.930Z,33.19
2018-07-14T14:52:57.342Z,33.82
2018-07-14T14:55:09.653Z,34.52
2018-07-14T14:57:22.168Z,34.78
2018-07-14T14:59:34.656Z,35.25
2018-07-14T15:01:47.058Z,34.43
2018-07-14T15:03:59.493Z,34.32
2018-07-14T15:06:11.850Z,34.67
2018-07-14T15:08:24.237Z,34.21
2018-07-14T15:10:36.639Z,34.94
2018-07-14T15:12:49.042Z,34.79
2018-07-14T15:15:01.581Z,34.83
2018-07-14T15:17:13.945Z,34.78
2018-07-14T15:19:26.453Z,35.43
2018-07-14T15:21:38.855Z,34.08
2018-07-14T15:23:51.401Z,34.84
2018-07-14T15:26:03.858Z,35.01
2018-07-14T15:28:16.272Z,35.41
2018-07-14T15:30:28.718Z,35.19
2018-07-14T15:32:41.179Z,34.93
2018-07-14T15:34:53.469Z,34.65
2018-07-14T15:37:05.892Z,34.91
2018-07-14T15:39:18.354Z,33.91
2018-07-14T15:41:30.900Z,34.30
2018-07-14T15:43:44.025Z,34.17
2018-07-14T15:45:56.386Z,34.74
2018-07-14T15:48:08.802Z,35.27
2018-07-14T15:50:21.194Z,34.94
2018-07-14T15:52:33.544Z,34.70
2018-07-14T15:54:46.010Z,35.00
2018-07-14T15:56:58.442Z,34.85
2018-07-14T15:59:10.838Z,35.39
2018-07-14T16:01:23.544Z,35.81
2018-07-14T16:03:35.990Z,35.15
2018-07-14T16:05:48.417Z,35.36
2018-07-14T16:08:00.938Z,35.99
2018-07-14T16:10:13.298Z,35.42
2018-07-14T16:12:25.686Z,35.48
2018-07-14T16:14:38.121Z,34.88
2018-07-14T16:16:50.549Z,36.12
2018-07-14T16:19:02.957Z,34.92
2018-07-14T16:21:15.310Z,34.84
2018-07-14T16:23:27.718Z,34.67
2018-07-14T16:25:40.047Z,35.40
2018-07-14T16:27:52.505Z,34.79
2018-07-14T16:30:05.189Z,34.96
2018-07-14T16:32:17.607Z,34.28
2018-07-14T16:34:30.354Z,34.76
2018-07-14T16:36:42.678Z,35.77
2018-07-14T16:38:55.035Z,35.88
2018-07-14T16:41:07.479Z,36.02
2018-07-14T16:43:19.838Z,36.07
2018-07-14T16:45:32.226Z,36.47
2018-07-14T16:47:44.622Z,36.04
2018-07-14T16:49:57.010Z,36.21
2018-07-14T16:52:09.393Z,36.95
2018-07-14T16:54:21.727Z,37.42
2018-07-14T16:56:34.174Z,36.70
2018-07-14T16:58:46.654Z,37.70
2018-07-14T17:00:59.011Z,37.95
2018-07-14T17:03:11.343Z,37.66
2018-07-14T17:05:23.746Z,38.40
2018-07-14T17:07:36.235Z,38.32
2018-07-14T17:09:48.655Z,38.23
2018-07-14T17:12:01.090Z,37.62
2018-07-14T17:14:13.571Z,37.72
2018-07-14T17:16:25.878Z,38.01
2018-07-14T17:18:38.274Z,39.08
2018-07-14T17:20:50.819Z,39.37
2018-07-14T17:23:03.302Z,38.77
2018-07-14T17:25:15.786Z,37.61
2018-07-14T17:27:28.229Z,37.46
2018-07-14T17:29:40.660Z,36.68
2018-07-14T17:31:53.110Z,38.13
2018-07-14T17:34:05.793Z,38.04
2018-07-14T17:36:18.327Z,37.38
2018-07-14T17:38:30.714Z,37.96
2018-07-14T17:40:43.154Z,38.18
2018-07-14T17:42:55.519Z,37.95
2018-07-14T17:45:07.930Z,38.48
2018-07-14T17:47:20.486Z,40.31
2018-07-14T17:49:32.895Z,42.43
2018-07-14T17:51:45.569Z,42.69
2018-07-14T17:53:57.873Z,42.92
2018-07-14T17:56:10.235Z,43.40
2018-07-14T17:58:22.854Z,42.94
2018-07-14T18:00:35.281Z,41.74
2018-07-14T18:02:47.695Z,42.34
2018-07-14T18:05:00.089Z,42.60
2018-07-14T18:07:12.539Z,42.46
2018-07-14T18:09:25.067Z,42.85
2018-07-14T18:11:37.535Z,42.88
2018-07-14T18:13:49.934Z,43.69
2018-07-14T18:16:02.355Z,43.65
2018-07-14T18:18:14.727Z,44.92
2018-07-14T18:20:27.246Z,44.02
2018-07-14T18:22:39.586Z,42.27
2018-07-14T18:24:52.037Z,43.67
2018-07-14T18:27:04.592Z,44.43
2018-07-14T18:29:17.002Z,43.89
2018-07-14T18:31:29.494Z,43.55
2018-07-14T18:33:41.934Z,43.06
2018-07-14T18:35:54.320Z,42.07
2018-07-14T18:38:06.689Z,40.79
2018-07-14T18:40:19.107Z,41.21
2018-07-14T18:42:31.543Z,40.91
2018-07-14T18:44:43.940Z,41.38
2018-07-14T18:46:56.301Z,42.42
2018-07-14T18:49:08.719Z,43.28
2018-07-14T18:51:21.156Z,44.97
2018-07-14T18:53:33.706Z,46.07
2018-07-14T18:55:46.164Z,47.06
2018-07-14T18:57:58.598Z,47.08
2018-07-14T19:00:12.036Z,48.24
2018-07-14T19:02:24.511Z,47.75
2018-07-14T19:04:36.918Z,48.95
2018-07-14T19:06:49.306Z,48.23
2018-07-14T19:09:01.798Z,48.59
2018-07-14T19:11:14.457Z,49.23
2018-07-14T19:13:26.898Z,49.41
2018-07-14T19:15:39.311Z,49.36
2018-07-14T19:17:51.698Z,49.54
2018-07-14T19:20:04.051Z,50.60
2018-07-14T19:22:16.530Z,50.79
2018-07-14T19:24:28.937Z,50.33
2018-07-14T19:26:41.527Z,50.83
2018-07-14T19:28:53.931Z,51.19
2018-07-14T19:31:06.363Z,50.35
2018-07-14T19:33:18.798Z,50.92
2018-07-14T19:35:31.224Z,50.13
2018-07-14T19:37:43.667Z,49.95
2018-07-14T19:39:56.163Z,50.29
2018-07-14T19:42:08.527Z,50.08
2018-07-14T19:44:20.896Z,49.33
2018-07-14T19:46:33.328Z,50.72
2018-07-14T19:48:45.765Z,49.80
2018-07-14T19:50:58.218Z,50.18
2018-07-14T19:53:10.607Z,49.44
2018-07-14T19:55:23.007Z,49.11
2018-07-14T19:57:35.563Z,50.11
2018-07-14T19:59:47.997Z,50.25
2018-07-14T20:02:00.413Z,49.57
2018-07-14T20:04:12.865Z,50.03
2018-07-14T20:06:27.704Z,49.71
2018-07-14T20:08:40.314Z,49.76
2018-07-14T20:10:52.748Z,50.08
2018-07-14T20:13:05.266Z,50.51
2018-07-14T20:15:17.710Z,50.05
2018-07-14T20:17:30.091Z,51.16
2018-07-14T20:19:42.570Z,50.83
2018-07-14T20:21:54.884Z,51.26
2018-07-14T20:24:07.234Z,51.93
2018-07-14T20:26:19.643Z,52.23
2018-07-14T20:28:32.120Z,53.44
2018-07-14T20:30:44.602Z,53.58
2018-07-14T20:32:56.974Z,52.74
2018-07-14T20:35:09.590Z,53.47
2018-07-14T20:37:21.989Z,52.28
2018-07-14T20:39:34.377Z,51.67
2018-07-14T20:41:46.730Z,52.56
2018-07-14T20:43:59.215Z,52.33
2018-07-14T20:46:11.668Z,52.77
2018-07-14T20:48:24.180Z,52.54
2018-07-14T20:50:36.536Z,53.10
2018-07-14T20:52:49.036Z,52.69
2018-07-14T20:55:01.473Z,53.54
2018-07-14T20:57:13.891Z,53.19
2018-07-14T20:59:26.284Z,53.68
2018-07-14T21:01:38.791Z,53.08
2018-07-14T21:03:51.310Z,53.12
2018-07-14T21:06:03.834Z,53.88
2018-07-14T21:08:16.386Z,53.11
2018-07-14T21:10:28.994Z,52.95
2018-07-14T21:12:41.389Z,53.05
2018-07-14T21:14:54.806Z,52.26
2018-07-14T21:17:07.182Z,52.31
2018-07-14T21:19:19.740Z,53.00
2018-07-14T21:21:32.159Z,52.70
2018-07-14T21:23:44.702Z,52.03
2018-07-14T21:25:57.254Z,52.71
2018-07-14T21:28:09.666Z,53.15
2018-07-14T21:30:22.157Z,52.47
2018-07-14T21:32:34.538Z,53.02
2018-07-14T21:34:46.947Z,53.06
2018-07-14T21:36:59.397Z,53.81
2018-07-14T21:39:11.881Z,53.90
2018-07-14T21:41:24.339Z,53.79
2018-07-14T21:43:36.802Z,53.74
2018-07-14T21:45:49.309Z,53.29
2018-07-14T21:48:01.727Z,53.24
2018-07-14T21:50:14.165Z,52.44
2018-07-14T21:52:26.876Z,53.29
2018-07-14T21:54:39.490Z,53.32
2018-07-14T21:56:51.929Z,52.98
2018-07-14T21:59:04.324Z,52.43
2018-07-14T22:01:22.488Z,53.20
2018-07-14T22:03:35.516Z,53.70
2018-07-14T22:05:47.947Z,53.82
2018-07-14T22:08:00.342Z,53.36
2018-07-14T22:10:12.726Z,54.16
2018-07-14T22:12:25.182Z,54.54
2018-07-14T22:14:37.538Z,55.92
2018-07-14T22:16:50.187Z,55.58
2018-07-14T22:19:02.697Z,56.64
2018-07-14T22:21:15.110Z,56.24
2018-07-14T22:23:27.529Z,57.63
2018-07-14T22:25:40.017Z,57.85
2018-07-14T22:27:52.362Z,57.69
2018-07-14T22:30:04.768Z,58.27
2018-07-14T22:32:17.290Z,58.47
2018-07-14T22:34:29.713Z,57.71
2018-07-14T22:36:42.169Z,58.20
2018-07-14T22:38:54.553Z,57.77
2018-07-14T22:41:06.966Z,57.78
2018-07-14T22:43:19.414Z,58.62
2018-07-14T22:45:31.776Z,57.91
2018-07-14T22:47:44.193Z,59.13
2018-07-14T22:49:56.551Z,58.97
2018-07-14T22:52:08.971Z,59.64
2018-07-14T22:54:22.504Z,59.12
2018-07-14T22:56:35.039Z,60.03
2018-07-14T22:58:47.418Z,59.43
2018-07-14T23:00:59.872Z,59.78
2018-07-14T23:03:12.356Z,59.80
2018-07-14T23:05:24.833Z,60.16
2018-07-14T23:07:37.221Z,60.80
2018-07-14T23:09:49.684Z,59.83
2018-07-14T23:12:02.037Z,59.89
2018-07-14T23:14:14.481Z,59.59
2018-07-14T23:16:26.839Z,60.30
2018-07-14T23:18:39.234Z,60.53
2018-07-14T23:20:51.782Z,60.73
2018-07-14T23:23:04.214Z,61.12
2018-07-14T23:25:16.601Z,60.96
2018-07-14T23:27:28.997Z,60.99
2018-07-14T23:29:41.486Z,61.44
2018-07-14T23:31:53.834Z,61.47
2018-07-14T23:34:06.446Z,61.17
2018-07-14T23:36:18.843Z,61.57
2018-07-14T23:38:31.234Z,61.99
2018-07-14T23:40:43.612Z,62.33
2018-07-14T23:42:55.994Z,61.86
2018-07-14T23:45:08.352Z,62.05
2018-07-14T23:47:20.710Z,61.90
2018-07-14T23:49:33.143Z,61.05
2018-07-14T23:51:45.552Z,61.23
2018-07-14T23:53:57.905Z,62.12
2018-07-14T23:56:10.416Z,62.07
2018-07-14T23:58:22.770Z,62.14
